Ana Sayfa
METAR-TAF:

METAR-TAF

Havaalanları :

Washington, Virginia, Amerika Birleşik Devletleri

Enlem: 38-56-05N, Boylam: 077-26-51W, yükseklik: 95 m

Güncel hava durumu gözlemi

Rapor saat 08:52 UTC de 11 dakika önce yapıldı.
Sakin rüzgar
Sıcaklık -6°C
Nem 79%
Basınç 1019 hPa
Görüş mesafesi: 16.1 km
25000 ft yükseklikte az bulutlu

METAR: KIAD 190852Z 00000KT 10SM FEW250 M06/M09 A3008 RMK AO2 SLP189 T10561094 58009

Saat: 04:03 (09:03 UTC)

Tahmin

Rapor saat 08:50 UTC de 13 dakika önce yapıldı.
Ayın 19'si saat 09 UTC'den ayın 20'si saat 12 UTC'ye kadar geçerli Tahmin
Rüzgar güneydan 4 kt
Görüş mesafesi: 10 km
25000 ft yükseklikte az bulutlu
Ayın 19'si saat 1500 UTC'den
Rüzgar güneybatıdan 7 kt
Görüş mesafesi: 10 km
25000 ft yükseklikte parçalı bulutlu
Ayın 19'si saat 2300 UTC'den
Rüzgar değişken yönden 3 kt
Görüş mesafesi: 10 km
25000 ft yükseklikte az bulutlu

TAF: KIAD 190850Z 1909/2012 18004KT P6SM FEW250 FM191500 23007KT P6SM SCT250 FM192300 VRB03KT P6SM FEW250

4.000'den fazla havaalanı için hava durumu gözlemleri ve tahminleri (METAR ve TAF raporları).

Kullanılabilir istasyonlar harita üzerinde sarı ve kırmızı noktalarla gösterilir.

İstasyonun adını görmek için fareyi noktanın üzerinde gezdirin.

Sonrasında hava gözlem ve tahminlerini görmek için tıklayın.

Haritayı değiştirmek için: yaklaştırmak için siyah artı işaretli yeşil düğmeye ve uzaklaştırmak için de eksi işaretli düğmeye hızla tıklayın; bitişik haritalar için yeşil okları kullanın.


METAR-TAF: